Time;durP1;ratioP1;P1;durP2;ratioP2;P2;SDS_P1;SDS_P2;PMS_P1;PMS_P2;Temp;Humidity;BMP_temperature;BMP_pressure;BME280_temperature;BME280_humidity;BME280_pressure;Samples;Min_cycle;Max_cycle;Signal;HPM_P1;HPM_P2
2022/11/19 00:01:25;;;;;;;1999.90;999.90;;;7.30;99.90;;;;;;5112361;28;20060;-80
2022/11/19 00:03:51;;;;;;;1999.90;999.90;;;7.10;99.90;;;;;;5094626;28;20127;-79
2022/11/19 00:06:20;;;;;;;1999.90;999.90;;;9.30;99.90;;;;;;5094363;28;20046;-79
2022/11/19 00:08:46;;;;;;;1999.90;999.90;;;7.30;99.90;;;;;;5112003;28;20428;-79
2022/11/19 00:12:53;;;;;;;1999.90;999.90;;;7.90;99.90;;;;;;5111506;28;20138;-78
2022/11/19 00:14:02;;;;;;;1999.90;999.90;;;8.90;99.90;;;;;;5111141;28;20051;-79
2022/11/19 00:16:28;;;;;;;1999.90;999.90;;;;;;;;;;5111585;28;20090;-78
2022/11/19 00:18:54;;;;;;;1999.90;999.90;;;7.50;99.90;;;;;;5112513;28;20394;-79
2022/11/19 00:21:20;;;;;;;1999.90;999.90;;;9.00;99.90;;;;;;5110934;28;20056;-79
2022/11/19 00:23:45;;;;;;;1999.90;999.90;;;7.60;99.90;;;;;;5093864;28;20046;-79
2022/11/19 00:26:13;;;;;;;1999.90;999.90;;;7.80;99.90;;;;;;5111239;28;20134;-78
2022/11/19 00:28:40;;;;;;;1999.90;999.90;;;7.80;99.90;;;;;;5113883;28;20108;-79
2022/11/19 00:31:08;;;;;;;1999.90;999.90;;;6.90;99.90;;;;;;5115863;28;20126;-78
2022/11/19 00:33:34;;;;;;;1999.90;999.90;;;6.60;99.90;;;;;;5114627;28;20135;-79
2022/11/19 00:36:00;;;;;;;1999.90;999.90;;;9.10;99.90;;;;;;5097333;28;20476;-79
2022/11/19 00:38:27;;;;;;;1999.90;999.90;;;9.10;99.90;;;;;;5115297;28;20486;-78
2022/11/19 00:40:53;;;;;;;1999.90;999.90;;;7.30;99.90;;;;;;5114580;28;20049;-78
2022/11/19 00:46:04;;;;;;;1999.90;999.90;;;8.70;99.90;;;;;;5115227;28;20101;-78
2022/11/19 00:48:29;;;;;;;1999.90;999.90;;;7.30;99.90;;;;;;5115978;28;20047;-79
2022/11/19 00:50:55;;;;;;;1999.90;999.90;;;7.50;99.90;;;;;;5113107;28;20061;-79
2022/11/19 00:53:21;;;;;;;1999.90;999.90;;;6.10;99.90;;;;;;5097567;28;20048;-78
2022/11/19 00:55:46;;;;;;;1999.90;999.90;;;6.40;99.90;;;;;;5114559;28;20472;-79
2022/11/19 00:58:12;;;;;;;1999.90;999.90;;;7.30;99.90;;;;;;5097947;28;20048;-78
2022/11/19 01:00:38;;;;;;;1999.90;999.90;;;6.40;99.90;;;;;;5081767;28;20131;-80
2022/11/19 01:03:04;;;;;;;1999.90;999.90;;;7.00;99.90;;;;;;5076901;28;20127;-78
2022/11/19 01:05:30;;;;;;;1999.90;999.90;;;9.00;99.90;;;;;;5094502;28;20043;-79
2022/11/19 01:07:56;;;;;;;1999.90;999.90;;;7.20;99.90;;;;;;5094539;28;20044;-78
2022/11/19 01:10:22;;;;;;;1999.90;999.90;;;9.10;99.90;;;;;;5094931;28;20048;-79
2022/11/19 01:15:32;;;;;;;1999.90;999.90;;;6.60;99.90;;;;;;5095121;28;20105;-79
2022/11/19 01:17:58;;;;;;;1999.90;999.90;;;8.20;99.90;;;;;;5094896;28;20130;-79
2022/11/19 01:20:23;;;;;;;1999.90;999.90;;;6.30;99.90;;;;;;5076197;28;20453;-79
2022/11/19 01:22:49;;;;;;;1999.90;999.90;;;4.90;99.90;;;;;;5076242;28;20091;-79
2022/11/19 01:25:15;;;;;;;1999.90;999.90;;;6.20;99.90;;;;;;5059726;28;20048;-80
2022/11/19 01:27:41;;;;;;;1999.90;999.90;;;5.70;99.90;;;;;;5094937;28;20048;-79
2022/11/19 01:30:07;;;;;;;1999.90;999.90;;;5.90;99.90;;;;;;5094638;28;20047;-79
2022/11/19 01:32:33;;;;;;;1999.90;999.90;;;6.30;99.90;;;;;;5094993;28;20058;-79
2022/11/19 01:34:59;;;;;;;1999.90;999.90;;;8.50;99.90;;;;;;5094400;28;20435;-79
2022/11/19 01:37:25;;;;;;;1999.90;999.90;;;8.60;99.90;;;;;;5076919;28;20052;-79
2022/11/19 01:39:51;;;;;;;1999.90;999.90;;;6.20;99.90;;;;;;5093500;28;20484;-79
2022/11/19 01:42:52;;;;;;;1999.90;999.90;;;7.30;99.90;;;;;;5094586;28;20123;-80
2022/11/19 01:45:33;;;;;;;1999.90;999.90;;;7.20;99.90;;;;;;5076263;28;20109;-83
2022/11/19 01:48:01;;;;;;;1999.90;999.90;;;6.30;99.90;;;;;;5093689;28;20522;-80
2022/11/19 01:50:33;;;;;;;1999.90;999.90;;;6.40;99.90;;;;;;5075622;28;20047;-83
2022/11/19 01:53:00;;;;;;;1999.90;999.90;;;6.90;99.90;;;;;;5093185;28;20048;-82
2022/11/19 01:55:27;;;;;;;1999.90;999.90;;;6.30;99.90;;;;;;5076163;28;20040;-80
2022/11/19 01:58:00;;;;;;;1999.90;999.90;;;5.90;99.90;;;;;;5075737;28;20048;-80
2022/11/19 02:00:26;;;;;;;1999.90;999.90;;;7.00;99.90;;;;;;5106213;28;20530;-80
2022/11/19 02:02:52;;;;;;;1999.90;999.90;;;5.60;99.90;;;;;;5096347;28;20047;-81
2022/11/19 02:05:18;;;;;;;1999.90;999.90;;;8.20;99.90;;;;;;5114847;28;20043;-80
2022/11/19 02:07:52;;;;;;;1999.90;999.90;;;6.10;99.90;;;;;;5094977;28;20043;-81
2022/11/19 02:10:19;;;;;;;1999.90;999.90;;;9.00;99.90;;;;;;5114002;28;20036;-82
2022/11/19 02:12:59;;;;;;;1999.90;999.90;;;6.80;99.90;;;;;;5114360;28;20043;-83
2022/11/19 02:15:39;;;;;;;1999.90;999.90;;;4.60;99.90;;;;;;5112610;28;20391;-81
2022/11/19 02:19:04;;;;;;;1999.90;999.90;;;5.90;99.90;;;;;;5112011;28;20404;-81
2022/11/19 02:22:00;;;;;;;1999.90;999.90;;;5.90;99.90;;;;;;5048816;28;20072;-81
2022/11/19 02:24:50;;;;;;;1999.90;999.90;;;5.50;99.90;;;;;;5033764;28;20052;-80
2022/11/19 02:27:18;;;;;;;1999.90;999.90;;;5.80;99.90;;;;;;5094149;28;20058;-80
2022/11/19 02:29:59;;;;;;;1999.90;999.90;;;5.70;99.90;;;;;;5113241;28;20050;-80
2022/11/19 02:32:50;;;;;;;1999.90;999.90;;;8.10;99.90;;;;;;5114437;28;20071;-81
2022/11/19 02:35:37;;;;;;;1999.90;999.90;;;7.10;99.90;;;;;;5083271;28;20495;-81
2022/11/19 02:38:26;;;;;;;1999.90;999.90;;;4.60;99.90;;;;;;5094974;28;20055;-82
2022/11/19 02:41:32;;;;;;;1999.90;999.90;;;4.40;99.90;;;;;;5112803;28;20046;-81
2022/11/19 02:46:40;;;;;;;1999.90;999.90;;;6.90;99.90;;;;;;5080182;28;20495;-81
2022/11/19 02:49:08;;;;;;;1999.90;999.90;;;5.80;99.90;;;;;;5094724;28;20468;-81
2022/11/19 02:51:34;;;;;;;1999.90;999.90;;;6.60;99.90;;;;;;5094731;28;20062;-81
2022/11/19 02:53:59;;;;;;;1999.90;999.90;;;6.50;99.90;;;;;;5112692;28;20051;-81
2022/11/19 02:56:51;;;;;;;1999.90;999.90;;;3.70;99.90;;;;;;5113237;28;20066;-81
2022/11/19 03:05:23;;;;;;;1999.90;839.55;;;6.30;99.90;;;;;;5112707;28;20112;-82
2022/11/19 03:07:49;;;;;;;1999.90;999.90;;;6.10;99.90;;;;;;5113040;28;20044;-84
2022/11/19 03:10:17;;;;;;;1999.90;999.90;;;7.60;99.90;;;;;;5094666;28;20483;-82
2022/11/19 03:12:48;;;;;;;;;;;6.10;99.90;;;;;;5113790;28;20047;-82
2022/11/19 03:18:39;;;;;;;1999.90;999.90;;;4.00;99.90;;;;;;5114272;28;20044;-82
2022/11/19 03:21:07;;;;;;;;;;;5.40;99.90;;;;;;5095163;28;20122;-81
2022/11/19 03:23:33;;;;;;;1999.90;999.90;;;;;;;;;;5095774;28;19927;-81
2022/11/19 03:26:21;;;;;;;1999.90;999.90;;;5.30;99.90;;;;;;5113441;28;20391;-81
2022/11/19 03:28:48;;;;;;;1999.90;999.90;;;5.30;99.90;;;;;;5096255;28;20472;-82
2022/11/19 03:31:17;;;;;;;1999.90;999.90;;;5.60;99.90;;;;;;5094573;28;20043;-82
2022/11/19 03:33:48;;;;;;;1999.90;999.90;;;6.60;99.90;;;;;;5113782;28;20057;-80
2022/11/19 03:36:30;;;;;;;1999.90;999.90;;;6.20;99.90;;;;;;5094317;28;20127;-81
2022/11/19 03:39:03;;;;;;;1999.90;999.90;;;5.80;99.90;;;;;;5094923;28;20044;-82
2022/11/19 03:41:30;;;;;;;1999.90;999.90;;;5.10;99.90;;;;;;5112802;28;20048;-81
2022/11/19 03:44:03;;;;;;;1999.90;999.90;;;4.40;99.90;;;;;;5112677;28;20046;-82
2022/11/19 03:46:33;;;;;;;1999.90;999.90;;;5.10;99.90;;;;;;5110591;28;20046;-81
2022/11/19 03:49:01;;;;;;;1999.90;999.90;;;4.10;99.90;;;;;;5112458;28;20044;-82
2022/11/19 03:51:37;;;;;;;1999.90;999.90;;;4.30;99.90;;;;;;5111822;28;20048;-81
2022/11/19 03:54:03;;;;;;;1999.90;999.90;;;4.80;99.90;;;;;;5110219;28;20043;-81
2022/11/19 03:56:32;;;;;;;1999.90;999.90;;;5.10;99.90;;;;;;5112288;28;20047;-81
2022/11/19 03:58:58;;;;;;;1999.90;999.90;;;4.00;99.90;;;;;;5111768;28;20047;-82
2022/11/19 04:01:24;;;;;;;1999.90;999.90;;;6.80;99.90;;;;;;5112103;28;20051;-81
2022/11/19 04:06:35;;;;;;;1999.90;999.90;;;;;;;;;;5112569;28;20059;-81
2022/11/19 04:09:00;;;;;;;1999.90;999.90;;;5.20;99.90;;;;;;5112831;28;20051;-81
2022/11/19 04:11:26;;;;;;;1999.90;999.90;;;6.60;99.90;;;;;;5077905;28;20124;-82
2022/11/19 04:13:52;;;;;;;1999.90;999.90;;;6.60;99.90;;;;;;5113189;28;20119;-82
2022/11/19 04:16:17;;;;;;;1999.90;999.90;;;4.80;99.90;;;;;;5111153;28;20047;-82
2022/11/19 04:18:43;;;;;;;1999.90;999.90;;;5.70;99.90;;;;;;5112322;28;20043;-82
2022/11/19 04:21:09;;;;;;;1999.90;999.90;;;4.50;99.90;;;;;;5112185;28;20249;-81
2022/11/19 04:23:34;;;;;;;1999.90;999.90;;;4.30;99.90;;;;;;5093970;28;20070;-83
2022/11/19 04:26:00;;;;;;;1999.90;999.90;;;3.80;99.90;;;;;;5110317;28;20165;-82
2022/11/19 04:28:26;;;;;;;1999.90;999.90;;;5.00;99.90;;;;;;5110632;28;20055;-82
2022/11/19 04:30:52;;;;;;;1999.90;999.90;;;4.80;99.90;;;;;;5093748;28;20040;-82
2022/11/19 04:33:18;;;;;;;1999.90;999.90;;;;;;;;;;5111798;28;20044;-82
2022/11/19 04:35:45;;;;;;;1999.90;999.90;;;4.70;99.90;;;;;;5093942;28;20053;-82
2022/11/19 04:38:10;;;;;;;1999.90;999.90;;;6.60;99.90;;;;;;5094435;28;20403;-82
2022/11/19 04:40:37;;;;;;;1999.90;999.90;;;4.60;99.90;;;;;;5112100;28;20039;-82
2022/11/19 04:43:03;;;;;;;1999.90;999.90;;;3.90;99.90;;;;;;5111944;28;20047;-82
2022/11/19 04:45:30;;;;;;;1999.90;999.90;;;4.70;99.90;;;;;;5111901;28;20222;-81
2022/11/19 04:47:55;;;;;;;1999.90;999.90;;;2.80;99.90;;;;;;5112176;28;20054;-82
2022/11/19 04:50:21;;;;;;;1999.90;999.90;;;4.30;99.90;;;;;;5093008;28;20047;-82
2022/11/19 04:52:47;;;;;;;1999.90;999.90;;;7.00;99.90;;;;;;5077327;28;20388;-81
2022/11/19 04:55:13;;;;;;;1999.90;999.90;;;;;;;;;;5111196;28;20043;-82
2022/11/19 04:57:39;;;;;;;1999.90;999.90;;;;;;;;;;5111150;28;20048;-82
2022/11/19 05:00:05;;;;;;;1999.90;999.90;;;5.00;99.90;;;;;;5092947;28;20056;-82
2022/11/19 05:02:31;;;;;;;1999.90;999.90;;;4.60;99.90;;;;;;5094004;28;20051;-82
2022/11/19 05:04:57;;;;;;;1999.90;999.90;;;4.40;99.90;;;;;;5110285;28;20047;-81
2022/11/19 05:07:22;;;;;;;1999.90;999.90;;;3.90;99.90;;;;;;5093964;28;20480;-82
2022/11/19 05:09:48;;;;;;;1999.90;999.90;;;5.70;99.90;;;;;;5092959;28;20453;-81
2022/11/19 05:12:14;;;;;;;1999.90;999.90;;;;;;;;;;5093947;28;20161;-82
2022/11/19 05:14:40;;;;;;;1999.90;999.90;;;6.10;99.90;;;;;;5110142;28;20055;-82
2022/11/19 05:17:06;;;;;;;1999.90;999.90;;;;;;;;;;5097376;28;20088;-85
2022/11/19 05:19:32;;;;;;;1999.90;999.90;;;4.80;99.90;;;;;;5097105;28;20043;-85
2022/11/19 05:21:57;;;;;;;1999.90;999.90;;;4.00;99.90;;;;;;5096949;28;20051;-84
2022/11/19 05:24:23;;;;;;;1999.90;934.67;;;4.60;99.90;;;;;;5115342;28;20048;-82
2022/11/19 05:26:49;;;;;;;1999.90;999.90;;;;;;;;;;5115565;28;20043;-83
2022/11/19 05:29:15;;;;;;;1999.90;999.90;;;1.20;99.90;;;;;;5096734;28;20048;-83
2022/11/19 05:31:40;;;;;;;1999.90;999.90;;;5.00;99.90;;;;;;5079935;28;20047;-79
2022/11/19 05:34:06;;;;;;;1999.90;999.90;;;4.50;99.90;;;;;;5097276;28;20491;-80
2022/11/19 05:36:32;;;;;;;1999.90;999.90;;;4.10;99.90;;;;;;5096670;28;20097;-80
2022/11/19 05:38:57;;;;;;;1999.90;999.90;;;5.00;99.90;;;;;;5096943;28;20055;-79
2022/11/19 05:41:23;;;;;;;1999.90;999.90;;;;;;;;;;5114993;28;20055;-79
2022/11/19 05:43:49;;;;;;;1999.90;999.90;;;7.90;99.90;;;;;;5115075;28;20047;-79
2022/11/19 05:46:15;;;;;;;1999.90;999.90;;;4.30;99.90;;;;;;5096124;28;20065;-78
2022/11/19 05:48:40;;;;;;;1999.90;999.90;;;4.60;99.90;;;;;;5114045;28;20130;-80
2022/11/19 05:51:06;;;;;;;1999.90;999.90;;;5.20;99.90;;;;;;5112104;28;20043;-80
2022/11/19 05:53:32;;;;;;;1999.90;999.90;;;4.50;99.90;;;;;;5113484;28;20555;-79
2022/11/19 05:55:57;;;;;;;1999.90;999.90;;;5.00;99.90;;;;;;5096568;28;20464;-80
2022/11/19 05:58:23;;;;;;;1999.90;999.90;;;4.60;99.90;;;;;;5113909;28;20394;-79
2022/11/19 06:00:54;;;;;;;1999.90;999.90;;;5.90;99.90;;;;;;5113402;28;20089;-79
2022/11/19 06:03:19;;;;;;;1999.90;999.90;;;3.80;99.90;;;;;;5114112;28;20058;-80
2022/11/19 06:05:45;;;;;;;1999.90;999.90;;;4.60;99.90;;;;;;5096052;28;20372;-80
2022/11/19 06:08:11;;;;;;;1999.90;999.90;;;6.40;99.90;;;;;;5114558;28;20400;-80
2022/11/19 06:10:36;;;;;;;1999.90;999.90;;;4.90;99.90;;;;;;5112344;28;20464;-81
2022/11/19 06:13:02;;;;;;;1999.90;999.90;;;;;;;;;;5095658;28;20527;-84
2022/11/19 06:15:28;;;;;;;1999.90;999.90;;;;;;;;;;5094905;28;20361;-82
2022/11/19 06:18:00;;;;;;;1999.90;999.90;;;5.50;99.90;;;;;;5112255;28;20062;-82
2022/11/19 06:20:25;;;;;;;1999.90;999.90;;;4.40;99.90;;;;;;5094980;28;20052;-81
2022/11/19 06:22:51;;;;;;;1999.90;999.90;;;4.30;99.90;;;;;;5113337;28;20043;-81
2022/11/19 06:25:17;;;;;;;1999.90;999.90;;;3.30;99.90;;;;;;5079232;28;20054;-81
2022/11/19 06:27:43;;;;;;;1999.90;999.90;;;4.60;99.90;;;;;;5096291;28;20047;-82
2022/11/19 06:30:09;;;;;;;1999.90;999.90;;;4.30;99.90;;;;;;5095676;28;20475;-82
2022/11/19 06:32:35;;;;;;;1999.90;999.90;;;5.90;99.90;;;;;;5077983;28;20332;-81
2022/11/19 06:35:01;;;;;;;1999.90;999.90;;;6.30;99.90;;;;;;5113956;28;20122;-81
2022/11/19 06:37:26;;;;;;;1999.90;999.90;;;3.90;99.90;;;;;;5095961;28;20466;-81
2022/11/19 06:39:54;;;;;;;1999.90;999.90;;;5.50;99.90;;;;;;5095755;28;20048;-81
2022/11/19 06:42:35;;;;;;;1999.90;999.90;;;4.00;99.90;;;;;;5096026;28;20091;-81
2022/11/19 06:45:07;;;;;;;1999.90;999.90;;;6.30;99.90;;;;;;5095697;28;20051;-81
2022/11/19 06:47:33;;;;;;;1999.90;999.90;;;5.70;99.90;;;;;;5112668;28;20048;-81
2022/11/19 06:49:58;;;;;;;1999.90;999.90;;;6.30;99.90;;;;;;5110806;28;20055;-83
2022/11/19 06:52:24;;;;;;;1999.90;999.90;;;5.80;99.90;;;;;;5112378;28;20040;-82
2022/11/19 06:54:50;;;;;;;1999.90;999.90;;;8.10;99.90;;;;;;5095163;28;20130;-81
2022/11/19 06:57:16;;;;;;;1999.90;999.90;;;;;;;;;;5094907;28;20583;-81
2022/11/19 06:59:42;;;;;;;1999.90;999.90;;;6.10;99.90;;;;;;5113094;28;20091;-82
2022/11/19 07:02:10;;;;;;;1999.90;999.90;;;5.80;99.90;;;;;;5111716;28;20089;-83
2022/11/19 07:04:37;;;;;;;1999.90;999.90;;;;;;;;;;5112031;28;20090;-84
2022/11/19 07:07:03;;;;;;;1999.90;999.90;;;6.20;99.90;;;;;;5113347;28;20127;-83
2022/11/19 07:09:29;;;;;;;1999.90;999.90;;;7.80;99.90;;;;;;5077691;28;20039;-83
2022/11/19 07:11:55;;;;;;;1999.90;999.90;;;;;;;;;;5094108;28;20126;-83
2022/11/19 07:14:20;;;;;;;1999.90;885.80;;;5.50;99.90;;;;;;5094362;28;20080;-85
2022/11/19 07:16:46;;;;;;;1999.90;999.90;;;8.20;99.90;;;;;;5094063;28;20555;-85
2022/11/19 07:19:12;;;;;;;1999.90;999.90;;;5.20;99.90;;;;;;5094637;28;20043;-83
2022/11/19 07:21:37;;;;;;;1999.90;706.83;;;5.70;99.90;;;;;;5110015;28;20043;-79
2022/11/19 07:24:05;;;;;;;1999.90;999.90;;;4.80;99.90;;;;;;5094447;28;20082;-79
2022/11/19 07:26:32;;;;;;;1999.90;999.90;;;5.00;99.90;;;;;;5094058;28;20068;-79
2022/11/19 07:29:03;;;;;;;1999.90;999.90;;;4.60;99.90;;;;;;5078354;28;20061;-80
2022/11/19 07:31:29;;;;;;;1999.90;999.90;;;5.90;99.90;;;;;;5112837;28;20277;-80
2022/11/19 07:33:55;;;;;;;1999.90;999.90;;;4.90;99.90;;;;;;5111255;28;20046;-79
2022/11/19 07:36:21;;;;;;;1999.90;999.90;;;4.60;99.90;;;;;;5094291;28;20205;-82
2022/11/19 07:38:49;;;;;;;1999.90;999.90;;;4.60;99.90;;;;;;5093439;28;20444;-78
2022/11/19 07:43:59;;;;;;;1999.90;999.90;;;4.90;99.90;;;;;;5095082;28;20058;-79
2022/11/19 07:46:25;;;;;;;1999.90;999.90;;;;;;;;;;5111647;28;20039;-83
2022/11/19 07:48:53;;;;;;;1999.90;999.90;;;4.80;99.90;;;;;;5094775;28;20131;-79
2022/11/19 07:51:19;;;;;;;1999.90;999.90;;;4.60;99.90;;;;;;5112359;28;20089;-80
2022/11/19 07:53:45;;;;;;;1999.90;999.90;;;;;;;;;;5112359;28;20435;-79
2022/11/19 07:56:10;;;;;;;1999.90;999.90;;;4.80;99.90;;;;;;5113058;28;20458;-79
2022/11/19 07:58:36;;;;;;;1999.90;999.90;;;5.00;99.90;;;;;;5111757;28;20121;-80
2022/11/19 08:01:28;;;;;;;1999.90;999.90;;;4.70;99.90;;;;;;5112015;28;20044;-79
2022/11/19 08:03:57;;;;;;;1999.90;999.90;;;;;;;;;;5109311;28;20065;-80
2022/11/19 08:06:26;;;;;;;1999.90;999.90;;;4.60;99.90;;;;;;5112197;28;20047;-80
2022/11/19 08:08:53;;;;;;;1999.90;999.90;;;5.70;99.90;;;;;;5093636;28;20048;-82
2022/11/19 08:11:19;;;;;;;1999.90;999.90;;;6.00;99.90;;;;;;5094328;28;20092;-81
2022/11/19 08:13:45;;;;;;;1999.90;999.90;;;2.40;99.90;;;;;;5077115;28;20437;-81
2022/11/19 08:16:12;;;;;;;1999.90;999.90;;;4.80;99.90;;;;;;5077224;28;20044;-80
2022/11/19 08:18:38;;;;;;;1999.90;999.90;;;2.40;99.90;;;;;;5112139;28;20166;-81
2022/11/19 08:21:05;;;;;;;1999.90;999.90;;;3.70;99.90;;;;;;5092646;28;20094;-80
2022/11/19 08:23:32;;;;;;;1999.90;999.90;;;5.20;99.90;;;;;;5077140;28;20139;-80
2022/11/19 08:25:58;;;;;;;1999.90;999.90;;;6.10;99.90;;;;;;5094074;28;20044;-80
2022/11/19 08:28:24;;;;;;;1999.90;999.90;;;;;;;;;;5112531;28;20052;-80
2022/11/19 08:30:50;;;;;;;1999.90;999.90;;;2.90;99.90;;;;;;5111604;28;20044;-81
2022/11/19 08:33:16;;;;;;;1999.90;884.73;;;4.10;99.90;;;;;;5093657;28;20080;-80
2022/11/19 08:35:42;;;;;;;1999.90;999.90;;;5.10;99.90;;;;;;5111377;28;20059;-80
2022/11/19 08:38:08;;;;;;;1999.90;999.90;;;4.40;99.90;;;;;;5111034;28;20430;-80
2022/11/19 08:40:34;;;;;;;1999.90;999.90;;;5.30;99.90;;;;;;5093745;28;20105;-81
2022/11/19 08:42:59;;;;;;;1999.90;999.90;;;4.70;99.90;;;;;;5111374;28;20052;-80
2022/11/19 08:45:37;;;;;;;1999.90;999.90;;;3.90;99.90;;;;;;5112237;28;20043;-80
2022/11/19 08:48:09;;;;;;;1999.90;999.90;;;4.70;99.90;;;;;;5111879;28;20047;-80
2022/11/19 08:50:35;;;;;;;1999.90;999.90;;;2.30;99.90;;;;;;5079624;28;20035;-80
2022/11/19 08:53:03;;;;;;;1999.90;999.90;;;7.30;99.90;;;;;;5114277;28;20050;-79
2022/11/19 08:55:29;;;;;;;;;;;4.50;99.90;;;;;;5115682;28;20492;-80
2022/11/19 08:58:06;;;;;;;1999.90;999.90;;;4.20;99.90;;;;;;5097405;28;19920;-80
2022/11/19 09:00:35;;;;;;;1999.90;999.90;;;6.10;99.90;;;;;;5116041;28;20393;-81
2022/11/19 09:03:00;;;;;;;1999.90;999.90;;;7.60;99.90;;;;;;5097819;28;20109;-80
2022/11/19 09:05:26;;;;;;;1999.90;999.90;;;6.00;99.90;;;;;;5097234;28;20068;-81
2022/11/19 09:07:54;;;;;;;1999.90;999.90;;;3.90;99.90;;;;;;5097230;28;20048;-80
2022/11/19 09:10:20;;;;;;;1999.90;999.90;;;5.90;99.90;;;;;;5115526;28;20043;-80
2022/11/19 09:12:45;;;;;;;1999.90;999.90;;;3.90;99.90;;;;;;5115886;28;20365;-80
2022/11/19 09:15:11;;;;;;;1999.90;999.90;;;6.30;99.90;;;;;;5115768;28;20065;-80
2022/11/19 09:17:37;;;;;;;1999.90;999.90;;;5.70;99.90;;;;;;5115281;28;20201;-80
2022/11/19 09:20:03;;;;;;;1999.90;999.90;;;8.10;99.90;;;;;;5097409;28;20083;-81
2022/11/19 09:22:30;;;;;;;1999.90;999.90;;;5.60;99.90;;;;;;5098037;28;20388;-80
2022/11/19 09:24:56;;;;;;;1999.90;999.90;;;5.90;99.90;;;;;;5114761;28;20058;-80
2022/11/19 09:27:21;;;;;;;1999.90;999.90;;;7.50;99.90;;;;;;5115356;28;20040;-80
2022/11/19 09:29:47;;;;;;;1999.90;999.90;;;6.60;99.90;;;;;;5096994;28;20081;-81
2022/11/19 09:32:13;;;;;;;1999.90;999.90;;;7.70;99.90;;;;;;5115707;28;20043;-82
2022/11/19 09:34:40;;;;;;;1999.90;999.90;;;7.20;99.90;;;;;;5115013;28;20118;-81
2022/11/19 09:37:07;;;;;;;1999.90;999.90;;;7.50;99.90;;;;;;5097540;28;20047;-81
2022/11/19 09:39:33;;;;;;;1999.90;999.90;;;7.30;99.90;;;;;;5097361;28;20048;-82
2022/11/19 09:42:10;;;;;;;1999.90;999.90;;;7.10;99.90;;;;;;5113327;28;20058;-81
2022/11/19 09:44:48;;;;;;;1999.90;999.90;;;6.40;99.90;;;;;;5114900;28;20514;-80
2022/11/19 09:47:26;;;;;;;1999.90;999.90;;;6.90;99.90;;;;;;5115300;28;20489;-80
2022/11/19 09:50:17;;;;;;;1999.90;999.90;;;8.00;99.90;;;;;;5114420;28;20248;-81
2022/11/19 09:52:55;;;;;;;1999.90;999.90;;;7.30;99.90;;;;;;5115134;28;20040;-80
2022/11/19 09:55:44;;;;;;;1999.90;999.90;;;7.60;99.90;;;;;;5115324;28;20051;-81
2022/11/19 09:58:21;;;;;;;1999.90;999.90;;;8.10;99.90;;;;;;5097139;28;20374;-80
2022/11/19 10:00:47;;;;;;;1999.90;830.13;;;6.40;99.90;;;;;;5112344;28;20067;-80
2022/11/19 10:03:21;;;;;;;1999.90;999.90;;;7.70;99.90;;;;;;5115248;28;20056;-81
2022/11/19 10:05:58;;;;;;;1999.90;999.90;;;6.30;99.90;;;;;;5096707;28;20139;-80
2022/11/19 10:08:35;;;;;;;1999.90;999.90;;;9.10;99.90;;;;;;5115433;28;20044;-81
2022/11/19 10:11:35;;;;;;;1999.90;999.90;;;9.20;99.90;;;;;;5114590;28;20391;-80
2022/11/19 10:14:35;;;;;;;1999.90;999.90;;;8.10;99.90;;;;;;5114718;28;20343;-80
2022/11/19 10:17:18;;;;;;;;;;;8.30;99.90;;;;;;5115345;28;20640;-80
2022/11/19 10:20:12;;;;;;;1999.90;999.90;;;7.50;99.90;;;;;;5113782;28;19919;-81
2022/11/19 10:22:53;;;;;;;1999.90;999.90;;;8.00;99.90;;;;;;5096120;28;20043;-80
2022/11/19 10:25:30;;;;;;;1999.90;999.90;;;6.40;99.90;;;;;;5114989;28;20040;-80
2022/11/19 10:28:11;;;;;;;1999.90;999.90;;;7.90;99.90;;;;;;5114880;28;20047;-80
2022/11/19 10:30:39;;;;;;;1999.90;999.90;;;7.70;99.90;;;;;;5096296;28;20079;-81
2022/11/19 10:33:21;;;;;;;;;;;9.60;99.90;;;;;;5096618;28;20054;-80
2022/11/19 10:35:52;;;;;;;1999.90;999.90;;;7.70;99.90;;;;;;5113790;28;19926;-80
2022/11/19 10:38:40;;;;;;;1999.90;999.90;;;7.80;99.90;;;;;;5114684;28;20260;-80
2022/11/19 10:41:16;;;;;;;1999.90;999.90;;;7.80;99.90;;;;;;5104874;28;20050;-80
2022/11/19 10:43:54;;;;;;;1999.90;999.90;;;10.00;99.90;;;;;;5114424;28;20094;-80
2022/11/19 10:46:24;;;;;;;1999.90;999.90;;;8.00;99.90;;;;;;5114708;28;20089;-80
2022/11/19 10:48:57;;;;;;;1999.90;999.90;;;8.30;99.90;;;;;;5096270;28;20051;-80
2022/11/19 10:51:34;;;;;;;1999.90;999.90;;;9.40;99.90;;;;;;5114080;28;20050;-80
2022/11/19 10:54:03;;;;;;;1999.90;956.60;;;6.60;99.90;;;;;;5113853;28;20059;-80
2022/11/19 10:56:39;;;;;;;1999.90;999.90;;;7.80;99.90;;;;;;5096223;28;20051;-80
2022/11/19 10:59:15;;;;;;;1999.90;999.90;;;7.70;99.90;;;;;;5113723;28;20139;-81
2022/11/19 11:01:46;;;;;;;1999.90;999.90;;;8.90;99.90;;;;;;5113728;28;20051;-81
2022/11/19 11:04:22;;;;;;;1999.90;999.90;;;9.90;99.90;;;;;;5113866;28;20040;-80
2022/11/19 11:06:55;;;;;;;1999.90;999.90;;;8.00;99.90;;;;;;5113350;28;20093;-83
2022/11/19 11:09:40;;;;;;;1999.90;999.90;;;8.00;99.90;;;;;;5113867;28;20044;-80
2022/11/19 11:15:20;;;;;;;1999.90;999.90;;;8.00;99.90;;;;;;5112126;28;20058;-82
2022/11/19 11:17:47;;;;;;;1999.90;999.90;;;8.00;99.90;;;;;;5112583;28;20070;-80
2022/11/19 11:20:13;;;;;;;1999.90;997.67;;;;;;;;;;5095062;28;20391;-81
2022/11/19 11:22:39;;;;;;;1999.90;999.90;;;8.20;99.90;;;;;;5113690;28;20044;-80
2022/11/19 11:25:19;;;;;;;1999.90;999.90;;;7.80;99.90;;;;;;5111673;28;20047;-81
2022/11/19 11:27:45;;;;;;;1999.90;999.90;;;9.20;99.90;;;;;;5113579;28;20480;-81
2022/11/19 11:30:11;;;;;;;1999.90;999.90;;;8.20;99.90;;;;;;5113432;28;20039;-80
2022/11/19 11:32:37;;;;;;;1999.90;929.28;;;9.40;99.90;;;;;;5113900;28;20399;-80
2022/11/19 11:35:04;;;;;;;1999.90;999.90;;;8.20;99.90;;;;;;5112956;28;20043;-81
2022/11/19 11:37:30;;;;;;;1999.90;999.90;;;;;;;;;;5113897;28;20083;-81
2022/11/19 11:39:57;;;;;;;1999.90;999.90;;;8.40;99.90;;;;;;5113465;28;20039;-81
2022/11/19 11:42:26;;;;;;;1999.90;954.45;;;12.40;99.90;;;;;;5110450;28;20039;-82
2022/11/19 11:44:57;;;;;;;1999.90;851.53;;;8.80;99.90;;;;;;5094440;28;20177;-81
2022/11/19 11:47:29;;;;;;;1999.90;999.90;;;8.50;99.90;;;;;;5113098;28;20047;-83
2022/11/19 11:50:16;;;;;;;1999.90;976.13;;;9.00;99.90;;;;;;5113060;28;20081;-81
2022/11/19 11:52:45;;;;;;;1999.90;898.63;;;8.50;99.90;;;;;;5094801;28;20048;-81
2022/11/19 11:55:28;;;;;;;1999.90;999.90;;;9.00;99.90;;;;;;5077235;28;20062;-81
2022/11/19 11:58:03;;;;;;;1999.90;999.90;;;7.40;99.90;;;;;;5112204;28;20083;-84
2022/11/19 12:00:31;;;;;;;1999.90;999.90;;;8.80;99.90;;;;;;5112347;28;20048;-80
2022/11/19 12:03:05;;;;;;;1999.90;999.90;;;8.50;99.90;;;;;;5111972;28;20056;-82
2022/11/19 12:05:43;;;;;;;1999.90;999.90;;;9.80;99.90;;;;;;5093620;28;20051;-82
2022/11/19 12:08:27;;;;;;;1999.90;999.90;;;8.70;99.90;;;;;;5093053;28;20048;-82
2022/11/19 12:11:19;;;;;;;1999.90;999.90;;;8.90;99.90;;;;;;5094180;28;20051;-81
2022/11/19 12:14:04;;;;;;;1999.90;999.28;;;8.90;99.90;;;;;;5094526;28;20051;-81
2022/11/19 12:16:47;;;;;;;1999.90;999.90;;;8.90;99.90;;;;;;5112181;28;20058;-82
2022/11/19 12:19:40;;;;;;;1999.90;999.90;;;8.90;99.90;;;;;;5094219;28;20043;-82
2022/11/19 12:22:43;;;;;;;1999.90;999.90;;;11.00;99.90;;;;;;5112040;28;20040;-81
2022/11/19 12:25:31;;;;;;;1999.90;999.90;;;8.40;99.90;;;;;;5114911;28;20144;-82
2022/11/19 12:28:19;;;;;;;1999.90;939.67;;;9.00;99.90;;;;;;5116270;28;20084;-83
2022/11/19 12:30:53;;;;;;;1999.90;999.90;;;9.10;99.90;;;;;;5097616;28;20051;-82
2022/11/19 12:33:28;;;;;;;1999.90;999.90;;;9.00;99.90;;;;;;5116252;28;20314;-81
2022/11/19 12:36:21;;;;;;;1999.90;999.90;;;10.00;99.90;;;;;;5097753;28;20051;-82
2022/11/19 12:39:07;;;;;;;1999.90;999.90;;;12.10;99.90;;;;;;5096596;28;20091;-81
2022/11/19 12:41:53;;;;;;;1999.90;999.90;;;7.50;99.90;;;;;;5097444;28;20510;-81
2022/11/19 12:44:40;;;;;;;1999.90;999.90;;;9.40;99.90;;;;;;5104073;28;20146;-82
2022/11/19 12:47:30;;;;;;;1999.90;999.90;;;10.50;99.90;;;;;;5115911;28;20043;-81
2022/11/19 12:50:19;;;;;;;1999.90;953.40;;;6.40;99.90;;;;;;5096987;28;20290;-82
2022/11/19 12:52:49;;;;;;;1999.90;991.63;;;9.20;99.90;;;;;;5097828;28;20062;-82
2022/11/19 12:55:42;;;;;;;1999.90;999.90;;;11.60;99.90;;;;;;5115875;28;20122;-82
2022/11/19 12:58:25;;;;;;;1999.90;999.90;;;9.00;99.90;;;;;;5097450;28;20104;-81
2022/11/19 13:01:03;;;;;;;1999.90;942.92;;;6.90;99.90;;;;;;5115827;28;20055;-81